Time;durP1;ratioP1;P1;durP2;ratioP2;P2;SDS_P1;SDS_P2;PMS_P1;PMS_P2;Temp;Humidity;BMP_temperature;BMP_pressure;BME280_temperature;BME280_humidity;BME280_pressure;Samples;Min_cycle;Max_cycle;Signal;HPM_P1;HPM_P2
2023/03/07 00:00:49;;;;;;;;;;;3.60;99.90;;;;;;5012092;28;208777;-69
2023/03/07 00:03:15;;;;;;;;;;;3.60;99.90;;;;;;5087392;28;19935;-71
2023/03/07 00:05:42;;;;;;;;;;;3.60;99.90;;;;;;4993404;28;209015;-70
2023/03/07 00:08:08;;;;;;;;;;;3.60;99.90;;;;;;5071299;28;19931;-70
2023/03/07 00:10:34;;;;;;;;;;;3.60;99.90;;;;;;5012851;28;211291;-69
2023/03/07 00:13:00;;;;;;;;;;;3.60;99.90;;;;;;5091118;28;19920;-70
2023/03/07 00:15:26;;;;;;;;;;;3.60;99.90;;;;;;5004606;28;139318;-69
2023/03/07 00:17:52;;;;;;;;;;;3.70;99.90;;;;;;5069920;28;19928;-69
2023/03/07 00:20:17;;;;;;;;;;;3.70;99.90;;;;;;4994922;28;208477;-69
2023/03/07 00:22:45;;;;;;;;;;;3.70;99.90;;;;;;5072977;28;19920;-71
2023/03/07 00:25:11;;;;;;;;;;;3.70;99.90;;;;;;5009038;28;229272;-71
2023/03/07 00:27:37;;;;;;;;;;;3.80;99.90;;;;;;5064651;28;19939;-71
2023/03/07 00:30:06;;;;;;;;;;;3.70;99.90;;;;;;5019727;28;183123;-71
2023/03/07 00:32:32;;;;;;;;;;;3.60;99.90;;;;;;5070750;28;19928;-70
2023/03/07 00:34:58;;;;;;;;;;;3.60;99.90;;;;;;5023401;28;209276;-71
2023/03/07 00:37:24;;;;;;;;;;;3.60;99.90;;;;;;5087090;28;19924;-70
2023/03/07 00:39:50;;;;;;;;;;;3.50;99.90;;;;;;5033283;28;207967;-70
2023/03/07 00:42:16;;;;;;;;;;;3.40;99.90;;;;;;5073331;28;19953;-72
2023/03/07 00:44:42;;;;;;;;;;;3.40;99.90;;;;;;5015245;28;205762;-71
2023/03/07 00:47:08;;;;;;;;;;;3.30;99.90;;;;;;5066327;28;20321;-70
2023/03/07 00:49:34;;;;;;;;;;;3.30;99.90;;;;;;5020910;28;151188;-72
2023/03/07 00:52:00;;;;;;;;;;;3.30;99.90;;;;;;5072465;28;19924;-70
2023/03/07 00:54:26;;;;;;;;;;;3.30;99.90;;;;;;5008025;28;206192;-70
2023/03/07 00:56:52;;;;;;;;;;;3.30;99.90;;;;;;5058449;28;19924;-71
2023/03/07 00:59:18;;;;;;;;;;;3.30;99.90;;;;;;4996205;28;247787;-70
2023/03/07 01:01:43;;;;;;;;;;;3.30;99.90;;;;;;5067356;28;19920;-70
2023/03/07 01:04:09;;;;;;;;;;;3.40;99.90;;;;;;5008099;28;207072;-70
2023/03/07 01:06:35;;;;;;;;;;;3.40;99.90;;;;;;5069454;28;19921;-70
2023/03/07 01:09:03;;;;;;;;;;;3.40;99.90;;;;;;5016350;28;206589;-69
2023/03/07 01:11:30;;;;;;;;;;;3.50;99.90;;;;;;5050942;28;20293;-70
2023/03/07 01:14:00;;;;;;;;;;;3.40;99.90;;;;;;5013475;28;207829;-69
2023/03/07 01:16:30;;;;;;;;;;;3.50;99.90;;;;;;5053894;28;19928;-71
2023/03/07 01:18:57;;;;;;;;;;;3.50;99.90;;;;;;5011043;28;213052;-70
2023/03/07 01:21:31;;;;;;;;;;;3.50;99.90;;;;;;5027795;28;20377;-70
2023/03/07 01:23:57;;;;;;;;;;;3.50;99.90;;;;;;5004665;28;208268;-70
2023/03/07 01:26:27;;;;;;;;;;;3.50;99.90;;;;;;5081176;28;19935;-70
2023/03/07 01:28:55;;;;;;;;;;;3.50;99.90;;;;;;5005283;28;204515;-70
2023/03/07 01:31:21;;;;;;;;;;;3.50;99.90;;;;;;5062393;28;19925;-70
2023/03/07 01:33:47;;;;;;;;;;;3.60;99.90;;;;;;5008940;28;215217;-69
2023/03/07 01:36:21;;;;;;;;;;;3.60;99.90;;;;;;5051374;28;19920;-70
2023/03/07 01:38:47;;;;;;;;;;;3.60;99.90;;;;;;5008378;28;211854;-71
2023/03/07 01:41:14;;;;;;;;;;;3.60;99.90;;;;;;5063774;28;19940;-70
2023/03/07 01:43:40;;;;;;;;;;;3.60;99.90;;;;;;5015894;28;223630;-69
2023/03/07 01:46:18;;;;;;;;;;;3.60;99.90;;;;;;5065469;28;19943;-70
2023/03/07 01:48:45;;;;;;;;;;;3.60;99.90;;;;;;5011324;28;213711;-69
2023/03/07 01:51:11;;;;;;;;;;;3.60;99.90;;;;;;5069654;28;19933;-70
2023/03/07 01:53:37;;;;;;;;;;;3.50;99.90;;;;;;5019662;28;204954;-70
2023/03/07 01:56:05;;;;;;;;;;;3.50;99.90;;;;;;5069275;28;19969;-70
2023/03/07 01:58:35;;;;;;;;;;;3.50;99.90;;;;;;5053798;28;207272;-70
2023/03/07 02:01:01;;;;;;;;;;;3.50;99.90;;;;;;5019951;28;19925;-70
2023/03/07 02:03:38;;;;;;;;;;;3.50;99.90;;;;;;5053377;28;20408;-70
2023/03/07 02:06:08;;;;;;;;;;;3.50;99.90;;;;;;4971591;28;19924;-68
2023/03/07 02:08:34;;;;;;;;;;;3.50;99.90;;;;;;5045522;28;204229;-71
2023/03/07 02:11:00;;;;;;;;;;;3.50;99.90;;;;;;5054772;28;19948;-71
2023/03/07 02:13:26;;;;;;;;;;;3.50;99.90;;;;;;5069494;28;20444;-69
2023/03/07 02:15:52;;;;;;;;;;;3.50;99.90;;;;;;5025086;28;210999;-70
2023/03/07 02:18:24;;;;;;;;;;;3.50;99.90;;;;;;5069222;28;19920;-71
2023/03/07 02:21:02;;;;;;;;;;;3.50;99.90;;;;;;4986370;28;205348;-69
2023/03/07 02:23:54;;;;;;;;;;;3.50;99.90;;;;;;5056755;28;208736;-70
2023/03/07 02:26:20;;;;;;;;;;;3.40;99.90;;;;;;5020205;28;199305;-71
2023/03/07 02:28:46;;;;;;;;;;;3.40;99.90;;;;;;5001410;28;209493;-70
2023/03/07 02:31:12;;;;;;;;;;;3.40;99.90;;;;;;5083543;28;20263;-71
2023/03/07 02:33:41;;;;;;;;;;;3.40;99.90;;;;;;5001049;28;217535;-72
2023/03/07 02:36:09;;;;;;;;;;;3.30;99.90;;;;;;5066455;28;19927;-70
2023/03/07 02:38:36;;;;;;;;;;;3.30;99.90;;;;;;5003005;28;209162;-71
2023/03/07 02:41:03;;;;;;;;;;;3.30;99.90;;;;;;5078125;28;19920;-72
2023/03/07 02:43:29;;;;;;;;;;;3.30;99.90;;;;;;5075568;28;206527;-71
2023/03/07 02:45:55;;;;;;;;;;;3.20;99.90;;;;;;5028625;28;140369;-71
2023/03/07 02:48:20;;;;;;;;;;;3.20;99.90;;;;;;5064610;28;19929;-70
2023/03/07 02:50:47;;;;;;;;;;;3.20;99.90;;;;;;5004214;28;216257;-71
2023/03/07 02:53:13;;;;;;;;;;;3.10;99.90;;;;;;5068886;28;19928;-70
2023/03/07 02:55:39;;;;;;;;;;;3.10;99.90;;;;;;4959811;28;1350269;-70
2023/03/07 02:58:05;;;;;;;;;;;3.10;99.90;;;;;;5069477;28;19921;-71
2023/03/07 03:00:31;;;;;;;;;;;3.00;99.90;;;;;;4998605;28;205221;-70
2023/03/07 03:02:57;;;;;;;;;;;3.00;99.90;;;;;;5069198;28;19966;-71
2023/03/07 03:05:23;;;;;;;;;;;3.00;99.90;;;;;;4974250;28;208522;-71
2023/03/07 03:07:49;;;;;;;;;;;2.90;99.90;;;;;;5066133;28;19928;-71
2023/03/07 03:10:16;;;;;;;;;;;2.90;99.90;;;;;;4993652;28;211940;-71
2023/03/07 03:12:42;;;;;;;;;;;2.90;99.90;;;;;;5060962;28;20613;-71
2023/03/07 03:15:08;;;;;;;;;;;2.90;99.90;;;;;;4999070;28;207700;-70
2023/03/07 03:17:34;;;;;;;;;;;2.90;99.90;;;;;;5061123;28;20292;-72
2023/03/07 03:20:00;;;;;;;;;;;2.80;99.90;;;;;;5004274;28;113441;-71
2023/03/07 03:22:26;;;;;;;;;;;2.90;99.90;;;;;;5084875;28;19924;-71
2023/03/07 03:24:52;;;;;;;;;;;2.90;99.90;;;;;;5002430;28;215427;-71
2023/03/07 03:27:18;;;;;;;;;;;2.90;99.90;;;;;;5081144;28;19920;-71
2023/03/07 03:29:44;;;;;;;;;;;2.90;99.90;;;;;;5009254;28;210286;-71
2023/03/07 03:32:10;;;;;;;;;;;2.90;99.90;;;;;;5048002;28;19924;-70
2023/03/07 03:34:36;;;;;;;;;;;3.00;99.90;;;;;;5014098;28;261355;-71
2023/03/07 03:37:02;;;;;;;;;;;2.90;99.90;;;;;;5089300;28;20331;-72
2023/03/07 03:39:31;;;;;;;;;;;2.90;99.90;;;;;;5039961;28;112537;-70
2023/03/07 03:41:57;;;;;;;;;;;2.90;99.90;;;;;;5088999;28;20349;-70
2023/03/07 03:44:23;;;;;;;;;;;2.90;99.90;;;;;;5025214;28;206648;-71
2023/03/07 03:46:48;;;;;;;;;;;2.90;99.90;;;;;;5077243;28;19963;-70
2023/03/07 03:49:15;;;;;;;;;;;2.90;99.90;;;;;;5017165;28;215273;-72
2023/03/07 03:51:41;;;;;;;;;;;2.80;99.90;;;;;;5078337;28;19928;-71
2023/03/07 03:54:07;;;;;;;;;;;2.80;99.90;;;;;;5029940;28;213285;-71
2023/03/07 03:56:33;;;;;;;;;;;2.80;99.90;;;;;;5082571;28;20488;-72
2023/03/07 03:58:59;;;;;;;;;;;2.80;99.90;;;;;;5016687;28;202306;-70
2023/03/07 04:01:26;;;;;;;;;;;2.70;99.90;;;;;;5077155;28;19924;-71
2023/03/07 04:03:52;;;;;;;;;;;2.70;99.90;;;;;;4999084;28;212555;-71
2023/03/07 04:06:20;;;;;;;;;;;2.70;99.90;;;;;;5083734;28;19919;-70
2023/03/07 04:08:46;;;;;;;;;;;2.70;99.90;;;;;;5011683;28;213654;-72
2023/03/07 04:11:12;;;;;;;;;;;2.70;99.90;;;;;;5068880;28;19925;-71
2023/03/07 04:13:38;;;;;;;;;;;2.70;99.90;;;;;;5022293;28;218693;-70
2023/03/07 04:16:04;;;;;;;;;;;2.80;99.90;;;;;;5066563;28;19925;-70
2023/03/07 04:18:30;;;;;;;;;;;2.80;99.90;;;;;;5043025;28;209269;-69
2023/03/07 04:20:56;;;;;;;;;;;2.80;99.90;;;;;;5040001;28;214324;-70
2023/03/07 04:23:23;;;;;;;;;;;2.70;99.90;;;;;;5088749;28;19924;-71
2023/03/07 04:25:56;;;;;;;;;;;2.70;99.90;;;;;;4981533;28;207114;-71
2023/03/07 04:28:23;;;;;;;;;;;2.70;99.90;;;;;;5096217;28;19931;-70
2023/03/07 04:30:49;;;;;;;;;;;2.70;99.90;;;;;;4998307;28;202811;-71
2023/03/07 04:33:15;;;;;;;;;;;2.70;99.90;;;;;;5091921;28;19924;-71
2023/03/07 04:35:41;;;;;;;;;;;2.70;99.90;;;;;;5003532;28;208904;-72
2023/03/07 04:38:08;;;;;;;;;;;2.70;99.90;;;;;;5086510;28;19920;-72
2023/03/07 04:40:34;;;;;;;;;;;2.60;99.90;;;;;;5027731;28;209272;-71
2023/03/07 04:43:00;;;;;;;;;;;2.70;99.90;;;;;;5093120;28;19920;-71
2023/03/07 04:45:26;;;;;;;;;;;2.70;99.90;;;;;;5033533;28;224588;-71
2023/03/07 04:47:52;;;;;;;;;;;2.80;99.90;;;;;;5087702;28;20032;-70
2023/03/07 04:50:18;;;;;;;;;;;2.70;99.90;;;;;;5021423;28;207400;-71
2023/03/07 04:52:44;;;;;;;;;;;2.70;99.90;;;;;;5089220;28;20019;-70
2023/03/07 04:55:10;;;;;;;;;;;2.70;99.90;;;;;;5026174;28;205626;-71
2023/03/07 04:57:36;;;;;;;;;;;2.70;99.90;;;;;;5089149;28;20385;-72
2023/03/07 05:00:08;;;;;;;;;;;2.70;99.90;;;;;;5044165;28;205937;-71
2023/03/07 05:02:34;;;;;;;;;;;2.70;99.90;;;;;;5090698;28;19939;-71
2023/03/07 05:05:00;;;;;;;;;;;2.70;99.90;;;;;;5014051;28;206494;-72
2023/03/07 05:07:26;;;;;;;;;;;2.70;99.90;;;;;;5073416;28;19964;-71
2023/03/07 05:09:52;;;;;;;;;;;2.80;99.90;;;;;;4991066;28;205938;-71
2023/03/07 05:12:18;;;;;;;;;;;2.70;99.90;;;;;;5073291;28;19924;-72
2023/03/07 05:14:44;;;;;;;;;;;2.80;99.90;;;;;;5032410;28;209915;-71
2023/03/07 05:17:10;;;;;;;;;;;2.70;99.90;;;;;;5089464;28;20274;-71
2023/03/07 05:19:36;;;;;;;;;;;2.70;99.90;;;;;;5045394;28;90254;-71
2023/03/07 05:22:02;;;;;;;;;;;2.80;99.90;;;;;;5056840;28;19927;-71
2023/03/07 05:24:28;;;;;;;;;;;2.70;99.90;;;;;;5004218;28;196072;-71
2023/03/07 05:26:54;;;;;;;;;;;2.80;99.90;;;;;;5069051;28;19928;-71
2023/03/07 05:29:20;;;;;;;;;;;2.70;99.90;;;;;;5043450;28;208532;-71
2023/03/07 05:31:46;;;;;;;;;;;2.80;99.90;;;;;;5086812;28;19932;-71
2023/03/07 05:34:14;;;;;;;;;;;2.80;99.90;;;;;;5029224;28;206547;-72
2023/03/07 05:36:40;;;;;;;;;;;2.80;99.90;;;;;;5044788;28;19924;-71
2023/03/07 05:39:06;;;;;;;;;;;2.80;99.90;;;;;;5034190;28;196531;-72
2023/03/07 05:41:32;;;;;;;;;;;2.80;99.90;;;;;;5074786;28;19924;-72
2023/03/07 05:43:58;;;;;;;;;;;2.80;99.90;;;;;;5017749;28;215661;-71
2023/03/07 05:46:24;;;;;;;;;;;2.90;99.90;;;;;;5089192;28;19971;-71
2023/03/07 05:48:50;;;;;;;;;;;2.90;99.90;;;;;;5033940;28;207098;-72
2023/03/07 05:51:16;;;;;;;;;;;2.90;99.90;;;;;;5066901;28;20011;-71
2023/03/07 05:53:42;;;;;;;;;;;2.90;99.90;;;;;;5011922;28;206166;-70
2023/03/07 05:56:08;;;;;;;;;;;2.90;99.90;;;;;;5067491;28;19929;-71
2023/03/07 05:58:34;;;;;;;;;;;2.90;99.90;;;;;;5052817;28;208588;-70
2023/03/07 06:01:02;;;;;;;;;;;2.90;99.90;;;;;;5065035;28;19928;-72
2023/03/07 06:03:28;;;;;;;;;;;2.90;99.90;;;;;;5059943;28;194117;-71
2023/03/07 06:05:54;;;;;;;;;;;2.90;99.90;;;;;;5007221;28;154703;-71
2023/03/07 06:08:23;;;;;;;;;;;3.00;99.90;;;;;;5075165;28;19920;-70
2023/03/07 06:10:50;;;;;;;;;;;3.00;99.90;;;;;;4995974;28;228456;-73
2023/03/07 06:13:20;;;;;;;;;;;3.00;99.90;;;;;;5073034;28;19932;-71
2023/03/07 06:15:53;;;;;;;;;;;3.10;99.90;;;;;;5005971;28;179973;-72
2023/03/07 06:18:20;;;;;;;;;;;3.20;99.90;;;;;;5077444;28;19930;-71
2023/03/07 06:20:57;;;;;;;;;;;3.20;99.90;;;;;;5014866;28;244997;-72
2023/03/07 06:23:27;;;;;;;;;;;3.10;99.90;;;;;;5068476;28;19936;-71
2023/03/07 06:25:53;;;;;;;;;;;3.10;99.90;;;;;;5015910;28;174675;-71
2023/03/07 06:28:19;;;;;;;;;;;3.10;99.90;;;;;;5071064;28;19926;-72
2023/03/07 06:30:45;;;;;;;;;;;3.10;99.90;;;;;;4998559;28;211104;-72
2023/03/07 06:33:11;;;;;;;;;;;2.90;99.90;;;;;;5066720;28;20241;-72
2023/03/07 06:35:38;;;;;;;;;;;2.80;99.90;;;;;;5012509;28;213157;-70
2023/03/07 06:38:08;;;;;;;;;;;2.60;99.90;;;;;;5069088;28;19925;-73
2023/03/07 06:40:34;;;;;;;;;;;2.60;99.90;;;;;;4982450;28;200488;-73
2023/03/07 06:43:00;;;;;;;;;;;2.60;99.90;;;;;;5068094;28;20181;-72
2023/03/07 06:45:26;;;;;;;;;;;2.60;99.90;;;;;;4994500;28;207880;-71
2023/03/07 06:47:52;;;;;;;;;;;2.50;99.90;;;;;;5074227;28;19931;-71
2023/03/07 06:50:18;;;;;;;;;;;2.50;99.90;;;;;;4993578;28;205931;-71
2023/03/07 06:52:44;;;;;;;;;;;2.50;99.90;;;;;;5068760;28;19928;-73
2023/03/07 06:55:10;;;;;;;;;;;2.50;99.90;;;;;;5012982;28;202733;-73
2023/03/07 06:57:36;;;;;;;;;;;2.50;99.90;;;;;;5051102;28;20491;-72
2023/03/07 07:00:04;;;;;;;;;;;2.50;99.90;;;;;;4975594;28;208979;-72
2023/03/07 07:02:30;;;;;;;;;;;2.50;99.90;;;;;;5048753;28;19951;-72
2023/03/07 07:04:57;;;;;;;;;;;2.50;99.90;;;;;;5002990;28;237540;-72
2023/03/07 07:07:23;;;;;;;;;;;2.50;99.90;;;;;;5076821;28;19927;-73
2023/03/07 07:09:50;;;;;;;;;;;2.50;99.90;;;;;;5021832;28;204256;-72
2023/03/07 07:12:16;;;;;;;;;;;2.50;99.90;;;;;;5090966;28;19928;-71
2023/03/07 07:14:42;;;;;;;;;;;2.40;99.90;;;;;;5014860;28;208125;-73
2023/03/07 07:17:09;;;;;;;;;;;2.50;99.90;;;;;;5082717;28;19924;-73
2023/03/07 07:19:35;;;;;;;;;;;2.50;99.90;;;;;;5028230;28;215362;-73
2023/03/07 07:22:01;;;;;;;;;;;2.50;99.90;;;;;;5069423;28;19920;-72
2023/03/07 07:24:27;;;;;;;;;;;2.50;99.90;;;;;;5040010;28;206883;-73
2023/03/07 07:26:54;;;;;;;;;;;2.50;99.90;;;;;;5096101;28;20007;-73
2023/03/07 07:29:21;;;;;;;;;;;2.50;99.90;;;;;;5036555;28;240253;-73
2023/03/07 07:31:48;;;;;;;;;;;2.50;99.90;;;;;;5072991;28;20308;-71
2023/03/07 07:34:14;;;;;;;;;;;2.50;99.90;;;;;;5021973;28;219341;-71
2023/03/07 07:36:40;;;;;;;;;;;2.60;99.90;;;;;;5078475;28;19920;-71
2023/03/07 07:39:06;;;;;;;;;;;2.60;99.90;;;;;;5040979;28;208557;-72
2023/03/07 07:41:33;;;;;;;;;;;2.60;99.90;;;;;;5099661;28;19931;-70
2023/03/07 07:43:59;;;;;;;;;;;2.60;99.90;;;;;;5032904;28;228132;-72
2023/03/07 07:46:27;;;;;;;;;;;2.60;99.90;;;;;;5056782;28;19917;-72
2023/03/07 07:48:53;;;;;;;;;;;2.70;99.90;;;;;;5016480;28;250623;-71
2023/03/07 07:51:22;;;;;;;;;;;2.70;99.90;;;;;;5026327;28;20435;-72
2023/03/07 07:53:48;;;;;;;;;;;2.70;99.90;;;;;;4997050;28;212158;-71
2023/03/07 07:56:14;;;;;;;;;;;2.80;99.90;;;;;;5073205;28;20129;-69
2023/03/07 07:58:40;;;;;;;;;;;2.70;99.90;;;;;;5032151;28;207333;-69
2023/03/07 08:01:17;;;;;;;;;;;2.70;99.90;;;;;;5075615;28;19924;-69
2023/03/07 08:03:43;;;;;;;;;;;2.70;99.90;;;;;;5012965;28;171191;-71
2023/03/07 08:06:09;;;;;;;;;;;2.60;99.90;;;;;;5094282;28;19920;-69
2023/03/07 08:08:35;;;;;;;;;;;2.60;99.90;;;;;;5025973;28;207277;-70
2023/03/07 08:11:01;;;;;;;;;;;2.60;99.90;;;;;;5062789;28;19931;-70
2023/03/07 08:13:27;;;;;;;;;;;2.60;99.90;;;;;;5078810;28;19943;-69
2023/03/07 08:15:53;;;;;;;;;;;2.60;99.90;;;;;;5019244;28;206883;-71
2023/03/07 08:18:19;;;;;;;;;;;2.70;99.90;;;;;;5090910;28;19924;-71
2023/03/07 08:20:45;;;;;;;;;;;2.70;99.90;;;;;;5028008;28;239245;-70
2023/03/07 08:23:11;;;;;;;;;;;2.70;99.90;;;;;;5092640;28;19939;-70
2023/03/07 08:25:37;;;;;;;;;;;2.60;99.90;;;;;;4891331;28;2823510;-71
2023/03/07 08:28:04;;;;;;;;;;;2.80;99.90;;;;;;5093086;28;19928;-70
2023/03/07 08:30:31;;;;;;;;;;;2.70;99.90;;;;;;5025414;28;219412;-69
2023/03/07 08:32:57;;;;;;;;;;;2.80;99.90;;;;;;5085394;28;19955;-70
2023/03/07 08:35:24;;;;;;;;;;;2.80;99.90;;;;;;5015866;28;165119;-71
2023/03/07 08:37:55;;;;;;;;;;;2.80;99.90;;;;;;5095246;28;19931;-71
2023/03/07 08:40:22;;;;;;;;;;;2.80;99.90;;;;;;5021640;28;143189;-71
2023/03/07 08:42:49;;;;;;;;;;;2.80;99.90;;;;;;5073949;28;20718;-71
2023/03/07 08:45:15;;;;;;;;;;;2.90;99.90;;;;;;5026957;28;236736;-70
2023/03/07 08:47:41;;;;;;;;;;;3.00;99.90;;;;;;5081758;28;20305;-69
2023/03/07 08:50:07;;;;;;;;;;;3.10;99.90;;;;;;5013958;28;207217;-70
2023/03/07 08:52:33;;;;;;;;;;;3.20;99.90;;;;;;5068739;28;19932;-70
2023/03/07 08:54:59;;;;;;;;;;;3.20;99.90;;;;;;5000798;28;250065;-72
2023/03/07 08:57:25;;;;;;;;;;;3.20;99.90;;;;;;5062575;28;19938;-70
2023/03/07 08:59:51;;;;;;;;;;;3.30;99.90;;;;;;4975797;28;1346684;-70
2023/03/07 09:02:17;;;;;;;;;;;3.30;99.90;;;;;;5085440;28;19920;-70
2023/03/07 09:04:44;;;;;;;;;;;3.40;99.90;;;;;;5014376;28;239516;-70
2023/03/07 09:07:13;;;;;;;;;;;3.40;99.90;;;;;;5084279;28;19920;-68
2023/03/07 09:09:39;;;;;;;;;;;3.40;99.90;;;;;;5038910;28;209214;-68
2023/03/07 09:12:05;;;;;;;;;;;3.30;99.90;;;;;;5091953;28;19967;-68
2023/03/07 09:14:31;;;;;;;;;;;3.30;99.90;;;;;;5034489;28;203664;-71
2023/03/07 09:16:57;;;;;;;;;;;3.40;99.90;;;;;;5078084;28;19988;-70
2023/03/07 09:19:23;;;;;;;;;;;3.30;99.90;;;;;;5031892;28;247116;-70
2023/03/07 09:21:49;;;;;;;;;;;3.30;99.90;;;;;;5081478;28;19924;-70
2023/03/07 09:24:18;;;;;;;;;;;3.10;99.90;;;;;;5029344;28;183471;-70
2023/03/07 09:26:44;;;;;;;;;;;2.90;99.90;;;;;;5086087;28;19951;-69
2023/03/07 09:29:09;;;;;;;;;;;2.00;99.90;;;;;;5025248;28;236583;-69
2023/03/07 09:31:35;;;;;;;;;;;1.50;99.90;;;;;;5090629;28;19920;-70
2023/03/07 09:34:01;;;;;;;;;;;1.30;99.90;;;;;;5035925;28;216332;-69
2023/03/07 09:36:27;;;;;;;;;;;1.30;99.90;;;;;;5057362;28;20024;-70
2023/03/07 09:38:55;;;;;;;;;;;1.30;99.90;;;;;;5028230;28;213490;-68
2023/03/07 09:41:21;;;;;;;;;;;1.30;99.90;;;;;;5081386;28;19920;-68
2023/03/07 09:43:53;;;;;;;;;;;1.40;99.90;;;;;;5013724;28;209010;-69
2023/03/07 09:46:19;;;;;;;;;;;1.50;99.90;;;;;;5071086;28;20381;-70
2023/03/07 09:49:03;;;;;;;;;;;1.60;99.90;;;;;;5026278;28;207875;-74
2023/03/07 09:51:29;;;;;;;;;;;1.70;99.90;;;;;;5086759;28;19920;-70
2023/03/07 09:54:00;;;;;;;;;;;1.70;99.90;;;;;;5013577;28;200465;-70
2023/03/07 09:56:26;;;;;;;;;;;1.80;99.90;;;;;;5072188;28;19931;-70
2023/03/07 09:58:59;;;;;;;;;;;1.80;99.90;;;;;;5024391;28;230922;-69
2023/03/07 10:01:26;;;;;;;;;;;1.70;99.90;;;;;;5055913;28;19930;-69
2023/03/07 10:03:56;;;;;;;;;;;1.80;99.90;;;;;;5016666;28;225340;-70
2023/03/07 10:06:39;;;;;;;;;;;2.00;99.90;;;;;;5070919;28;19920;-69
2023/03/07 10:09:17;;;;;;;;;;;2.10;99.90;;;;;;5028433;28;207460;-68
2023/03/07 10:11:43;;;;;;;;;;;2.20;99.90;;;;;;5078742;28;19920;-70
2023/03/07 10:14:35;;;;;;;;;;;2.30;99.90;;;;;;5012893;28;207090;-69
2023/03/07 10:17:19;;;;;;;;;;;2.50;99.90;;;;;;5063195;28;19935;-69
2023/03/07 10:19:56;;;;;;;;;;;2.60;99.90;;;;;;5054212;28;223641;-68
2023/03/07 10:22:26;;;;;;;;;;;2.80;99.90;;;;;;5073112;28;19935;-69
2023/03/07 10:25:10;;;;;;;;;;;2.90;99.90;;;;;;5030846;28;181177;-70
2023/03/07 10:27:36;;;;;;;;;;;3.10;99.90;;;;;;5090938;28;20235;-71
2023/03/07 10:30:09;;;;;;;;;;;3.30;99.90;;;;;;5040667;28;203901;-70
2023/03/07 10:32:38;;;;;;;;;;;3.40;99.90;;;;;;5091588;28;20099;-72
2023/03/07 10:35:10;;;;;;;;;;;3.70;99.90;;;;;;5028119;28;208233;-72
2023/03/07 10:37:52;;;;;;;;;;;3.80;99.90;;;;;;5080403;28;19928;-71
2023/03/07 10:40:24;;;;;;;;;;;3.80;99.90;;;;;;5025180;28;207467;-71
2023/03/07 10:42:51;;;;;;;;;;;3.90;99.90;;;;;;5066726;28;19951;-70
2023/03/07 10:45:20;;;;;;;;;;;4.10;99.90;;;;;;5002019;28;205597;-70
2023/03/07 10:47:46;;;;;;;;;;;4.40;99.90;;;;;;5059724;28;19939;-71
2023/03/07 10:50:20;;;;;;;;;;;4.50;99.90;;;;;;5024476;28;207287;-70
2023/03/07 10:52:48;;;;;;;;;;;4.60;99.90;;;;;;5068775;28;20697;-71
2023/03/07 10:55:31;;;;;;;;;;;5.00;99.90;;;;;;5011004;28;216372;-71
2023/03/07 10:58:15;;;;;;;;;;;5.30;99.90;;;;;;5086969;28;19931;-70
2023/03/07 11:00:43;;;;;;;;;;;5.40;99.90;;;;;;5020105;28;172082;-69
2023/03/07 11:03:20;;;;;;;;;;;5.60;99.90;;;;;;5088881;28;20404;-71
2023/03/07 11:05:47;;;;;;;;;;;5.50;99.90;;;;;;4959735;28;989234;-69
2023/03/07 11:08:39;;;;;;;;;;;5.40;99.90;;;;;;5091938;28;19943;-71
2023/03/07 11:11:20;;;;;;;;;;;5.10;99.90;;;;;;4993067;28;75769;-70
2023/03/07 11:14:05;;;;;;;;;;;5.00;99.90;;;;;;5025766;28;210916;-70
2023/03/07 11:16:31;;;;;;;;;;;4.80;99.90;;;;;;5075370;28;20326;-69
2023/03/07 11:18:56;;;;;;;;;;;4.80;99.90;;;;;;5018518;28;207417;-68
2023/03/07 11:21:26;;;;;;;;;;;4.80;99.90;;;;;;5080945;28;20091;-70
2023/03/07 11:26:38;;;;;;;;;;;4.90;99.90;;;;;;5092551;27;2017213;-69
2023/03/07 11:29:06;;;;;;;;;;;4.90;99.90;;;;;;5098426;27;213711;-69
2023/03/07 11:31:55;;;;;;;;;;;4.90;99.90;;;;;;5116428;28;20003;-69
2023/03/07 11:34:25;;;;;;;;;;;5.10;99.90;;;;;;4969702;28;205993;-70
2023/03/07 11:36:55;;;;;;;;;;;5.30;99.90;;;;;;5021676;28;19932;-69
2023/03/07 11:39:37;;;;;;;;;;;5.40;99.90;;;;;;4954270;28;203592;-71
2023/03/07 11:42:04;;;;;;;;;;;5.50;99.90;;;;;;4984000;28;19932;-69
2023/03/07 11:44:41;;;;;;;;;;;5.70;99.90;;;;;;4956932;28;240197;-69
2023/03/07 11:47:26;;;;;;;;;;;5.70;99.90;;;;;;5018735;28;19925;-70
2023/03/07 11:50:04;;;;;;;;;;;5.80;99.90;;;;;;4942250;28;204329;-68
2023/03/07 11:52:42;;;;;;;;;;;6.00;99.90;;;;;;5009018;28;19932;-70
2023/03/07 11:55:23;;;;;;;;;;;6.10;99.90;;;;;;4962138;28;225470;-70
2023/03/07 11:57:57;;;;;;;;;;;6.30;99.90;;;;;;4996370;28;19936;-70
2023/03/07 12:00:33;;;;;;;;;;;6.50;99.90;;;;;;4939348;28;225259;-70
2023/03/07 12:02:59;;;;;;;;;;;6.80;99.90;;;;;;5013993;28;19968;-70
2023/03/07 12:05:37;;;;;;;;;;;7.10;99.90;;;;;;4899214;28;278223;-69
2023/03/07 12:08:22;;;;;;;;;;;7.30;99.90;;;;;;5019501;28;19936;-70
2023/03/07 12:10:54;;;;;;;;;;;7.20;99.90;;;;;;4954109;28;206905;-70
2023/03/07 12:13:33;;;;;;;;;;;7.40;99.90;;;;;;5078803;28;19929;-69
2023/03/07 12:16:26;;;;;;;;;;;7.10;99.90;;;;;;5053234;28;19978;-68
2023/03/07 12:19:11;;;;;;;;;;;7.00;99.90;;;;;;5034375;28;208943;-70
2023/03/07 12:22:03;;;;;;;;;;;6.70;99.90;;;;;;5094693;27;19931;-69
2023/03/07 12:24:31;;;;;;;;;;;6.70;99.90;;;;;;5012769;28;227603;-68
2023/03/07 12:27:04;;;;;;;;;;;6.90;99.90;;;;;;5073922;28;19935;-67
2023/03/07 12:29:41;;;;;;;;;;;6.90;99.90;;;;;;5031565;28;159638;-68
2023/03/07 12:32:20;;;;;;;;;;;6.70;99.90;;;;;;5082268;28;19924;-68
2023/03/07 12:34:55;;;;;;;;;;;6.40;99.90;;;;;;5029182;28;253598;-72
2023/03/07 12:37:29;;;;;;;;;;;6.30;99.90;;;;;;5068779;28;20305;-70
2023/03/07 12:39:58;;;;;;;;;;;6.00;99.90;;;;;;5019266;28;206400;-69
2023/03/07 12:42:24;;;;;;;;;;;6.10;99.90;;;;;;5073052;28;19937;-68
2023/03/07 12:44:54;;;;;;;;;;;6.20;99.90;;;;;;5015044;28;232219;-69
2023/03/07 12:47:31;;;;;;;;;;;6.00;99.90;;;;;;5064871;28;19948;-70
2023/03/07 12:50:15;;;;;;;;;;;5.90;99.90;;;;;;5006874;28;211101;-69
2023/03/07 12:52:52;;;;;;;;;;;5.90;99.90;;;;;;5067211;28;19948;-70
2023/03/07 12:55:23;;;;;;;;;;;5.70;99.90;;;;;;5007155;28;215162;-68
2023/03/07 12:57:56;;;;;;;;;;;5.70;99.90;;;;;;5059966;28;19920;-69
2023/03/07 13:00:23;;;;;;;;;;;5.60;99.90;;;;;;4992656;28;216346;-69
2023/03/07 13:03:10;;;;;;;;;;;5.70;99.90;;;;;;5055720;28;19982;-70
2023/03/07 13:05:36;;;;;;;;;;;5.90;99.90;;;;;;4993434;28;205273;-71
2023/03/07 13:08:08;;;;;;;;;;;6.30;99.90;;;;;;5090484;28;19920;-70
2023/03/07 13:10:35;;;;;;;;;;;6.60;99.90;;;;;;5007208;28;131372;-70
2023/03/07 13:13:00;;;;;;;;;;;7.00;99.90;;;;;;5066682;28;19927;-69
2023/03/07 13:15:35;;;;;;;;;;;7.90;99.90;;;;;;5021966;28;212499;-71
2023/03/07 13:18:01;;;;;;;;;;;8.60;99.60;;;;;;5081194;28;19950;-71
2023/03/07 13:20:27;;;;;;;;;;;8.80;97.80;;;;;;4991076;28;232592;-70
2023/03/07 13:22:53;;;;;;;;;;;8.40;96.50;;;;;;5075864;28;19984;-70
2023/03/07 13:25:19;;;;;;;;;;;8.60;98.00;;;;;;5000440;28;224961;-69
2023/03/07 13:27:50;;;;;;;;;;;8.00;97.90;;;;;;5077205;28;19928;-69
2023/03/07 13:30:18;;;;;;;;;;;7.50;97.90;;;;;;5011485;28;228019;-70
2023/03/07 13:32:50;;;;;;;;;;;8.10;97.50;;;;;;5061497;28;19963;-71
2023/03/07 13:35:35;;;;;;;;;;;8.20;97.20;;;;;;5013848;28;205880;-71
2023/03/07 13:38:02;;;;;;;;;;;8.10;97.20;;;;;;5100056;28;20015;-69
2023/03/07 13:40:47;;;;;;;;;;;8.40;98.10;;;;;;5027439;28;201529;-70
2023/03/07 13:43:22;;;;;;;;;;;8.30;97.20;;;;;;5060933;28;19920;-70
2023/03/07 13:45:52;;;;;;;;;;;7.40;98.30;;;;;;5021140;28;220337;-70
2023/03/07 13:48:18;;;;;;;;;;;6.60;99.80;;;;;;5059871;28;19929;-71
2023/03/07 13:50:44;;;;;;;;;;;6.30;99.90;;;;;;5005956;28;204401;-71
2023/03/07 13:53:15;;;;;;;;;;;5.70;99.90;;;;;;5057032;28;19925;-70
2023/03/07 13:55:45;;;;;;;;;;;5.20;99.90;;;;;;5015619;28;186211;-71
2023/03/07 13:58:31;;;;;;;;;;;5.10;99.90;;;;;;5080714;28;20404;-71
2023/03/07 14:01:03;;;;;;;;;;;5.20;99.90;;;;;;4991012;28;54519;-71
2023/03/07 14:03:30;;;;;;;;;;;5.10;99.90;;;;;;5062305;28;209193;-70
2023/03/07 14:05:58;;;;;;;;;;;4.80;99.90;;;;;;5027633;28;50459;-71
2023/03/07 14:08:26;;;;;;;;;;;4.60;99.90;;;;;;5055451;28;19932;-71
2023/03/07 14:10:52;;;;;;;;;;;4.40;99.90;;;;;;4999383;28;237608;-70
2023/03/07 14:13:30;;;;;;;;;;;4.20;99.90;;;;;;5059990;28;19965;-71
2023/03/07 14:16:17;;;;;;;;;;;4.20;99.90;;;;;;4973200;28;185989;-70
2023/03/07 14:18:43;;;;;;;;;;;4.20;99.90;;;;;;4975265;28;227342;-72
2023/03/07 14:21:09;;;;;;;;;;;4.20;99.90;;;;;;5043746;28;19927;-71
2023/03/07 14:23:35;;;;;;;;;;;4.30;99.90;;;;;;5037579;28;211168;-72
2023/03/07 14:26:21;;;;;;;;;;;5.10;99.90;;;;;;5011737;28;19931;-71
2023/03/07 14:28:49;;;;;;;;;;;5.60;99.90;;;;;;5001950;28;206337;-72
2023/03/07 14:31:26;;;;;;;;;;;6.00;99.90;;;;;;5073771;28;19920;-72
2023/03/07 14:33:53;;;;;;;;;;;5.80;99.90;;;;;;5001369;28;216087;-72
2023/03/07 14:36:20;;;;;;;;;;;5.50;99.90;;;;;;5065424;28;19920;-70